createdAt,value
2022-08-05T00:01:28.384Z,598.97
2022-08-05T00:03:57.202Z,610.57
2022-08-05T00:06:28.926Z,600.07
2022-08-05T00:08:58.936Z,593.80
2022-08-05T00:11:30.311Z,599.10
2022-08-05T00:14:01.413Z,597.30
2022-08-05T00:16:35.711Z,600.77
2022-08-05T00:19:03.227Z,600.60
2022-08-05T00:21:30.672Z,602.87
2022-08-05T00:24:10.508Z,600.97
2022-08-05T00:26:37.768Z,607.50
2022-08-05T00:29:04.200Z,611.20
2022-08-05T00:31:41.495Z,596.20
2022-08-05T00:34:53.755Z,609.13
2022-08-05T00:37:09.765Z,598.07
2022-08-05T00:39:44.494Z,607.37
2022-08-05T00:42:32.062Z,574.00
2022-08-05T00:44:58.792Z,610.80
2022-08-05T00:47:26.065Z,608.90
2022-08-05T00:49:52.489Z,597.43
2022-08-05T00:52:18.952Z,612.57
2022-08-05T00:54:55.295Z,612.83
2022-08-05T00:57:22.890Z,612.80
2022-08-05T00:59:51.992Z,613.10
2022-08-05T01:02:18.458Z,605.30
2022-08-05T01:04:44.921Z,614.90
2022-08-05T01:07:17.865Z,612.50
2022-08-05T01:09:44.524Z,614.30
2022-08-05T01:12:18.720Z,609.30
2022-08-05T01:14:45.492Z,613.63
2022-08-05T01:17:12.147Z,599.70
2022-08-05T01:20:02.275Z,615.70
2022-08-05T01:22:28.031Z,612.20
2022-08-05T01:24:54.753Z,608.30
2022-08-05T01:27:22.119Z,599.60
2022-08-05T01:29:48.762Z,607.17
2022-08-05T01:32:18.399Z,575.13
2022-08-05T01:34:45.244Z,612.03
2022-08-05T01:37:18.120Z,599.97
2022-08-05T01:39:51.808Z,600.77
2022-08-05T01:42:20.641Z,616.60
2022-08-05T01:44:53.848Z,610.37
2022-08-05T01:47:21.079Z,600.47
2022-08-05T01:50:02.107Z,614.10
2022-08-05T01:52:29.585Z,588.53
2022-08-05T01:54:56.782Z,613.10
2022-08-05T01:58:12.869Z,610.90
2022-08-05T02:00:11.836Z,600.07
2022-08-05T02:02:38.728Z,609.77
2022-08-05T02:05:17.763Z,609.00
2022-08-05T02:07:57.913Z,611.40
2022-08-05T02:10:28.685Z,599.27
2022-08-05T02:12:55.283Z,612.10
2022-08-05T02:15:21.738Z,610.33
2022-08-05T02:18:31.652Z,608.70
2022-08-05T02:20:39.038Z,598.30
2022-08-05T02:23:05.725Z,602.63
2022-08-05T02:25:49.179Z,601.27
2022-08-05T02:28:16.777Z,588.10
2022-08-05T02:30:56.491Z,603.40
2022-08-05T02:33:24.685Z,611.60
2022-08-05T02:36:04.591Z,602.10
2022-08-05T02:38:35.006Z,609.30
2022-08-05T02:41:14.443Z,610.80
2022-08-05T02:44:02.327Z,599.10
2022-08-05T02:46:30.283Z,595.67
2022-08-05T02:48:56.869Z,599.57
2022-08-05T02:51:48.471Z,612.43
2022-08-05T02:54:09.727Z,599.97
2022-08-05T02:56:56.155Z,590.87
2022-08-05T02:59:26.928Z,599.07
2022-08-05T03:01:54.287Z,596.60
2022-08-05T03:04:20.756Z,596.30
2022-08-05T03:06:56.096Z,596.67
2022-08-05T03:09:36.326Z,606.90
2022-08-05T03:12:04.036Z,598.70
2022-08-05T03:14:30.497Z,592.37
2022-08-05T03:16:57.114Z,604.20
2022-08-05T03:19:33.738Z,606.90
2022-08-05T03:22:04.761Z,599.87
2022-08-05T03:24:42.624Z,604.90
2022-08-05T03:27:13.593Z,595.37
2022-08-05T03:29:45.200Z,608.50
2022-08-05T03:32:31.012Z,603.50
2022-08-05T03:34:57.815Z,610.60
2022-08-05T03:37:24.445Z,601.03
2022-08-05T03:39:59.096Z,607.20
2022-08-05T03:42:27.285Z,601.93
2022-08-05T03:44:55.704Z,614.50
2022-08-05T03:47:23.772Z,611.70
2022-08-05T03:49:51.388Z,617.83
2022-08-05T03:52:50.074Z,610.27
2022-08-05T03:56:01.935Z,617.00
2022-08-05T03:57:51.053Z,615.53
2022-08-05T04:00:17.496Z,601.07
2022-08-05T04:02:52.271Z,604.20
2022-08-05T04:05:25.248Z,614.80
2022-08-05T04:07:57.995Z,614.50
2022-08-05T04:10:25.408Z,616.80
2022-08-05T04:12:54.475Z,605.87
2022-08-05T04:15:21.256Z,605.80
2022-08-05T04:17:57.132Z,625.00
2022-08-05T04:20:23.864Z,612.87
2022-08-05T04:22:50.324Z,605.10
2022-08-05T04:25:16.987Z,617.10
2022-08-05T04:27:58.067Z,603.73
2022-08-05T04:30:26.571Z,603.80
2022-08-05T04:32:53.153Z,608.70
2022-08-05T04:35:20.010Z,621.90
2022-08-05T04:38:01.558Z,616.27
2022-08-05T04:40:32.545Z,603.70
2022-08-05T04:42:59.031Z,617.70
2022-08-05T04:45:31.157Z,611.07
2022-08-05T04:48:18.393Z,605.20
2022-08-05T04:51:03.547Z,608.10
2022-08-05T04:53:38.858Z,619.03
2022-08-05T04:56:33.517Z,605.00
2022-08-05T04:58:51.928Z,604.17
2022-08-05T05:02:05.971Z,619.13
2022-08-05T05:04:05.397Z,603.77
2022-08-05T05:06:39.450Z,605.07
2022-08-05T05:09:09.862Z,611.83
2022-08-05T05:11:52.819Z,604.10
2022-08-05T05:14:31.851Z,600.50
2022-08-05T05:17:01.407Z,614.60
2022-08-05T05:19:36.271Z,606.07
2022-08-05T05:22:24.597Z,612.50
2022-08-05T05:24:57.713Z,612.47
2022-08-05T05:27:26.248Z,610.60
2022-08-05T05:30:15.650Z,602.10
2022-08-05T05:32:56.386Z,608.93
2022-08-05T05:35:22.857Z,603.83
2022-08-05T05:37:59.810Z,617.73
2022-08-05T05:40:26.862Z,611.00
2022-08-05T05:42:54.586Z,604.20
2022-08-05T05:45:22.785Z,616.23
2022-08-05T05:48:06.593Z,618.73
2022-08-05T05:50:33.855Z,611.77
2022-08-05T05:53:00.615Z,615.60
2022-08-05T05:55:52.413Z,620.10
2022-08-05T05:58:13.501Z,608.67
2022-08-05T06:00:40.778Z,605.50
2022-08-05T06:03:40.131Z,618.43
2022-08-05T06:05:58.827Z,599.20
2022-08-05T06:08:32.745Z,606.80
2022-08-05T06:10:59.517Z,599.37
2022-08-05T06:13:26.739Z,605.97
2022-08-05T06:16:29.754Z,615.20
2022-08-05T06:18:39.700Z,612.33
2022-08-05T06:21:07.888Z,595.73
2022-08-05T06:23:44.056Z,603.67
2022-08-05T06:26:13.715Z,622.60
2022-08-05T06:28:47.568Z,605.10
2022-08-05T06:31:17.944Z,605.40
2022-08-05T06:34:06.010Z,608.40
2022-08-05T06:36:37.517Z,609.10
2022-08-05T06:39:18.919Z,612.37
2022-08-05T06:41:48.378Z,614.97
2022-08-05T06:44:15.083Z,603.77
2022-08-05T06:46:41.874Z,605.17
2022-08-05T06:49:08.998Z,605.57
2022-08-05T06:51:40.674Z,610.67
2022-08-05T06:54:07.369Z,615.00
2022-08-05T06:56:35.235Z,616.10
2022-08-05T06:59:01.820Z,618.70
2022-08-05T07:01:32.231Z,614.10
2022-08-05T07:03:59.429Z,604.73
2022-08-05T07:06:28.501Z,622.03
2022-08-05T07:08:55.206Z,608.67
2022-08-05T07:11:22.160Z,609.87
2022-08-05T07:13:57.730Z,609.17
2022-08-05T07:18:00.227Z,610.00
2022-08-05T07:19:53.804Z,613.30
2022-08-05T07:22:02.231Z,607.57
2022-08-05T07:24:29.879Z,612.40
2022-08-05T07:26:56.464Z,616.60
2022-08-05T07:30:22.964Z,602.70
2022-08-05T07:32:09.374Z,613.33
2022-08-05T07:34:40.476Z,613.43
2022-08-05T07:37:11.450Z,616.10
2022-08-05T07:40:26.498Z,603.90
2022-08-05T07:42:33.446Z,603.80
2022-08-05T07:45:00.561Z,603.47
2022-08-05T07:47:27.049Z,604.77
2022-08-05T07:50:08.881Z,617.93
2022-08-05T07:52:35.734Z,601.20
2022-08-05T07:55:02.167Z,605.90
2022-08-05T07:57:58.755Z,603.20
2022-08-05T08:00:28.637Z,609.70
2022-08-05T08:03:15.307Z,601.37
2022-08-05T08:05:45.926Z,606.60
2022-08-05T08:08:16.391Z,618.30
2022-08-05T08:10:48.789Z,603.50
2022-08-05T08:13:15.612Z,604.13
2022-08-05T08:16:49.761Z,613.10
2022-08-05T08:18:35.111Z,608.90
2022-08-05T08:21:04.207Z,614.07
2022-08-05T08:24:01.239Z,613.00
2022-08-05T08:26:27.146Z,603.50
2022-08-05T08:29:02.123Z,596.20
2022-08-05T08:31:42.766Z,607.83
2022-08-05T08:34:09.564Z,610.13
2022-08-05T08:36:47.617Z,610.90
2022-08-05T08:39:19.117Z,611.03
2022-08-05T08:41:52.579Z,604.10
2022-08-05T08:45:19.056Z,599.10
2022-08-05T08:47:22.295Z,607.00
2022-08-05T08:50:22.992Z,605.67
2022-08-05T08:52:51.359Z,607.97
2022-08-05T08:55:19.294Z,593.43
2022-08-05T08:57:57.891Z,597.40
2022-08-05T09:00:25.079Z,606.13
2022-08-05T09:02:52.710Z,599.60
2022-08-05T09:05:19.197Z,612.90
2022-08-05T09:08:05.524Z,600.80
2022-08-05T09:10:36.243Z,596.33
2022-08-05T09:13:06.703Z,598.37
2022-08-05T09:15:37.108Z,606.57
2022-08-05T09:18:03.757Z,609.00
2022-08-05T09:20:36.413Z,608.37
2022-08-05T09:23:05.207Z,614.00
2022-08-05T09:26:02.328Z,610.87
2022-08-05T09:28:21.047Z,607.33
2022-08-05T09:30:47.749Z,610.53
2022-08-05T09:33:17.206Z,598.87
2022-08-05T09:35:43.886Z,616.60
2022-08-05T09:38:12.749Z,598.97
2022-08-05T09:40:52.639Z,603.60
2022-08-05T09:43:20.387Z,602.23
2022-08-05T09:46:06.648Z,612.30
2022-08-05T09:48:33.339Z,610.30
2022-08-05T09:51:00.181Z,611.97
2022-08-05T09:53:54.602Z,616.83
2022-08-05T09:56:13.661Z,607.20
2022-08-05T09:58:41.913Z,614.20
2022-08-05T10:01:15.222Z,602.10
2022-08-05T10:03:58.589Z,594.20
2022-08-05T10:06:26.293Z,613.97
2022-08-05T10:08:55.371Z,615.20
2022-08-05T10:11:22.211Z,618.47
2022-08-05T10:13:49.525Z,605.63
2022-08-05T10:16:21.280Z,609.10
2022-08-05T10:18:48.074Z,619.07
2022-08-05T10:21:16.282Z,606.10
2022-08-05T10:23:59.444Z,613.17
2022-08-05T10:26:31.706Z,613.60
2022-08-05T10:29:00.401Z,614.37
2022-08-05T10:32:53.762Z,612.50
2022-08-05T10:34:13.387Z,612.50
2022-08-05T10:36:40.007Z,602.43
2022-08-05T10:39:15.220Z,587.53
2022-08-05T10:41:51.837Z,609.50
2022-08-05T10:44:18.510Z,616.47
2022-08-05T10:46:45.028Z,582.10
2022-08-05T10:49:16.623Z,587.97
2022-08-05T10:51:57.680Z,605.07
2022-08-05T10:54:29.889Z,608.97
2022-08-05T10:56:59.177Z,605.70
2022-08-05T11:00:02.127Z,612.40
2022-08-05T11:02:34.470Z,610.80
2022-08-05T11:04:58.631Z,605.53
2022-08-05T11:07:33.327Z,608.30
2022-08-05T11:10:13.173Z,602.27
2022-08-05T11:12:41.209Z,604.80
2022-08-05T11:15:19.289Z,601.77
2022-08-05T11:17:57.639Z,615.00
2022-08-05T11:20:27.083Z,594.80
2022-08-05T11:22:58.056Z,601.17
2022-08-05T11:26:04.903Z,581.70
2022-08-05T11:28:17.177Z,601.43
2022-08-05T11:30:43.912Z,604.57
2022-08-05T11:33:21.170Z,606.87
2022-08-05T11:36:08.042Z,615.23
2022-08-05T11:38:45.288Z,607.97
2022-08-05T11:41:35.103Z,599.67
2022-08-05T11:44:07.136Z,588.50
2022-08-05T11:46:34.894Z,601.27
2022-08-05T11:49:01.493Z,596.70
2022-08-05T11:51:44.320Z,599.73
2022-08-05T11:54:14.535Z,611.20
2022-08-05T11:56:41.384Z,593.97
2022-08-05T11:59:13.726Z,595.70
2022-08-05T12:01:40.482Z,600.53
2022-08-05T12:04:07.130Z,600.03
2022-08-05T12:06:33.580Z,608.77
2022-08-05T12:09:01.068Z,601.40
2022-08-05T12:11:40.139Z,608.30
2022-08-05T12:14:08.254Z,605.20
2022-08-05T12:16:38.383Z,601.17
2022-08-05T12:19:05.243Z,596.80
2022-08-05T12:21:39.297Z,606.50
2022-08-05T12:24:06.903Z,607.90
2022-08-05T12:26:33.803Z,610.90
2022-08-05T12:29:01.448Z,587.60
2022-08-05T12:31:33.659Z,600.47
2022-08-05T12:34:20.335Z,604.80
2022-08-05T12:36:48.102Z,600.30
2022-08-05T12:39:14.689Z,621.30
2022-08-05T12:41:44.124Z,621.77
2022-08-05T12:44:11.683Z,599.07
2022-08-05T12:46:41.011Z,607.90
2022-08-05T12:49:13.608Z,603.73
2022-08-05T12:52:12.755Z,601.80
2022-08-05T12:54:29.385Z,592.00
2022-08-05T12:56:55.858Z,579.90
2022-08-05T12:59:46.814Z,604.23
2022-08-05T13:02:09.949Z,593.17
2022-08-05T13:04:41.817Z,612.90
2022-08-05T13:07:41.340Z,593.10
2022-08-05T13:10:05.544Z,592.10
2022-08-05T13:12:31.985Z,577.43
2022-08-05T13:15:05.070Z,603.87
2022-08-05T13:17:41.666Z,612.50
2022-08-05T13:20:08.978Z,594.53
2022-08-05T13:22:37.891Z,605.30
2022-08-05T13:25:07.971Z,593.77
2022-08-05T13:27:45.337Z,608.17
2022-08-05T13:30:33.584Z,604.77
2022-08-05T13:33:02.246Z,601.57
2022-08-05T13:35:42.930Z,592.83
2022-08-05T13:38:28.130Z,600.80
2022-08-05T13:40:57.808Z,596.63
2022-08-05T13:43:24.623Z,602.80
2022-08-05T13:46:11.575Z,596.40
2022-08-05T13:48:57.169Z,595.27
2022-08-05T13:51:24.550Z,592.27
2022-08-05T13:53:50.980Z,600.03
2022-08-05T13:56:23.021Z,604.73
2022-08-05T13:58:53.053Z,595.00
2022-08-05T14:01:21.275Z,594.97
2022-08-05T14:03:53.971Z,593.70
2022-08-05T14:06:25.304Z,602.63
2022-08-05T14:08:53.495Z,566.90
2022-08-05T14:11:22.070Z,608.97
2022-08-05T14:13:48.682Z,603.80
2022-08-05T14:16:21.598Z,606.10
2022-08-05T14:18:48.101Z,596.10
2022-08-05T14:22:08.397Z,608.03
2022-08-05T14:24:02.447Z,589.50
2022-08-05T14:26:36.796Z,594.80
2022-08-05T14:29:15.714Z,606.47
2022-08-05T14:32:02.979Z,574.70
2022-08-05T14:34:29.740Z,587.00
2022-08-05T14:37:01.990Z,604.30
2022-08-05T14:39:28.559Z,601.80
2022-08-05T14:42:19.447Z,596.77
2022-08-05T14:44:42.124Z,603.93
2022-08-05T14:47:08.868Z,600.27
2022-08-05T14:49:58.927Z,589.17
2022-08-05T14:52:50.437Z,597.93
2022-08-05T14:55:08.357Z,598.97
2022-08-05T14:57:56.225Z,597.17
2022-08-05T15:00:28.115Z,600.03
2022-08-05T15:02:55.012Z,591.20
2022-08-05T15:05:21.516Z,590.50
2022-08-05T15:08:11.269Z,605.60
2022-08-05T15:10:34.399Z,602.20
2022-08-05T15:13:04.011Z,596.77
2022-08-05T15:15:54.522Z,604.60
2022-08-05T15:18:17.558Z,599.30
2022-08-05T15:20:44.013Z,592.47
2022-08-05T15:23:12.560Z,591.17
2022-08-05T15:25:51.185Z,591.27
2022-08-05T15:28:19.553Z,601.30
2022-08-05T15:30:53.126Z,597.50
2022-08-05T15:34:04.521Z,589.57
2022-08-05T15:36:06.278Z,586.33
2022-08-05T15:38:43.762Z,597.30
2022-08-05T15:41:20.987Z,600.73
2022-08-05T15:43:50.618Z,593.57
2022-08-05T15:46:17.433Z,596.30
2022-08-05T15:48:52.786Z,593.70
2022-08-05T15:52:04.228Z,593.57
2022-08-05T15:54:15.075Z,575.80
2022-08-05T15:56:42.276Z,592.93
2022-08-05T15:59:10.019Z,586.87
2022-08-05T16:01:52.635Z,593.00
2022-08-05T16:04:19.804Z,593.13
2022-08-05T16:06:46.259Z,598.67
2022-08-05T16:09:12.722Z,591.27
2022-08-05T16:11:42.964Z,591.37
2022-08-05T16:14:10.071Z,587.63
2022-08-05T16:16:44.013Z,592.73
2022-08-05T16:19:12.555Z,597.27
2022-08-05T16:22:01.213Z,589.33
2022-08-05T16:24:40.650Z,596.30
2022-08-05T16:27:16.478Z,584.43
2022-08-05T16:29:47.245Z,585.63
2022-08-05T16:32:16.951Z,584.77
2022-08-05T16:34:43.389Z,588.17
2022-08-05T16:38:00.392Z,588.40
2022-08-05T16:40:06.026Z,589.70
2022-08-05T16:42:34.330Z,594.03
2022-08-05T16:45:01.090Z,593.40
2022-08-05T16:47:35.740Z,582.60
2022-08-05T16:50:02.965Z,582.20
2022-08-05T16:52:33.321Z,592.60
2022-08-05T16:55:00.072Z,593.10
2022-08-05T16:57:50.476Z,588.30
2022-08-05T17:00:14.086Z,585.60
2022-08-05T17:02:40.689Z,582.17
2022-08-05T17:05:07.205Z,597.30
2022-08-05T17:07:39.028Z,566.43
2022-08-05T17:10:09.906Z,585.20
2022-08-05T17:12:51.486Z,600.70
2022-08-05T17:15:19.646Z,593.20
2022-08-05T17:17:48.953Z,580.57
2022-08-05T17:20:21.763Z,593.63
2022-08-05T17:22:55.384Z,594.60
2022-08-05T17:25:39.459Z,590.93
2022-08-05T17:28:07.732Z,580.70
2022-08-05T17:30:42.536Z,590.50
2022-08-05T17:33:16.689Z,584.43
2022-08-05T17:36:07.276Z,580.37
2022-08-05T17:38:29.571Z,581.80
2022-08-05T17:40:56.059Z,583.10
2022-08-05T17:43:46.826Z,580.90
2022-08-05T17:46:10.255Z,577.57
2022-08-05T17:48:36.835Z,591.63
2022-08-05T17:51:03.320Z,590.73
2022-08-05T17:53:35.933Z,575.67
2022-08-05T17:56:02.815Z,585.57
2022-08-05T17:58:32.274Z,589.40
2022-08-05T18:00:59.320Z,595.13
2022-08-05T18:06:15.037Z,580.20
2022-08-05T18:08:44.854Z,586.83
2022-08-05T18:11:24.439Z,588.20
2022-08-05T18:13:56.231Z,583.03
2022-08-05T18:16:22.700Z,578.50
2022-08-05T18:18:50.079Z,582.20
2022-08-05T18:21:21.378Z,578.50
2022-08-05T18:23:49.572Z,590.83
2022-08-05T18:26:20.496Z,586.60
2022-08-05T18:28:46.940Z,593.03
2022-08-05T18:31:15.702Z,583.40
2022-08-05T18:33:47.335Z,572.17
2022-08-05T18:36:19.081Z,592.23
2022-08-05T18:38:45.838Z,562.13
2022-08-05T18:41:57.138Z,589.07
2022-08-05T18:43:58.694Z,584.47
2022-08-05T18:46:33.036Z,580.87
2022-08-05T18:48:59.470Z,582.80
2022-08-05T18:52:06.151Z,594.77
2022-08-05T18:54:12.337Z,586.97
2022-08-05T18:56:39.673Z,587.90
2022-08-05T18:59:43.441Z,591.83
2022-08-05T19:01:56.930Z,582.33
2022-08-05T19:04:25.099Z,592.27
2022-08-05T19:06:51.650Z,577.20
2022-08-05T19:09:20.104Z,579.87
2022-08-05T19:12:00.129Z,593.93
2022-08-05T19:14:52.191Z,586.30
2022-08-05T19:17:14.061Z,560.33
2022-08-05T19:19:44.095Z,586.67
2022-08-05T19:22:13.613Z,573.53
2022-08-05T19:24:54.500Z,581.57
2022-08-05T19:27:23.333Z,576.17
2022-08-05T19:29:49.886Z,587.40
2022-08-05T19:32:16.335Z,567.43
2022-08-05T19:34:54.901Z,583.43
2022-08-05T19:37:22.209Z,578.87
2022-08-05T19:39:56.689Z,576.20
2022-08-05T19:42:34.931Z,587.77
2022-08-05T19:45:02.586Z,588.00
2022-08-05T19:47:32.261Z,562.87
2022-08-05T19:50:00.404Z,589.73
2022-08-05T19:52:31.656Z,577.23
2022-08-05T19:55:00.406Z,588.77
2022-08-05T19:57:47.325Z,580.57
2022-08-05T20:00:20.803Z,582.87
2022-08-05T20:02:47.350Z,575.80
2022-08-05T20:05:16.582Z,586.13
2022-08-05T20:07:53.987Z,564.00
2022-08-05T20:10:24.469Z,580.10
2022-08-05T20:12:51.669Z,586.80
2022-08-05T20:15:22.916Z,588.00
2022-08-05T20:18:10.017Z,584.23
2022-08-05T20:20:50.971Z,574.20
2022-08-05T20:23:17.459Z,578.40
2022-08-05T20:25:46.145Z,582.53
2022-08-05T20:28:15.646Z,584.30
2022-08-05T20:30:42.094Z,581.77
2022-08-05T20:33:08.560Z,578.13
2022-08-05T20:35:40.295Z,586.70
2022-08-05T20:38:11.695Z,579.67
2022-08-05T20:40:46.747Z,581.87
2022-08-05T20:43:16.911Z,574.70
2022-08-05T20:46:00.371Z,585.40
2022-08-05T20:48:26.915Z,587.70
2022-08-05T20:50:53.392Z,573.00
2022-08-05T20:53:40.568Z,591.03
2022-08-05T20:56:09.153Z,582.37
2022-08-05T20:58:36.085Z,580.00
2022-08-05T21:01:03.607Z,585.40
2022-08-05T21:03:30.572Z,586.20
2022-08-05T21:06:01.212Z,589.30
2022-08-05T21:08:32.985Z,597.20
2022-08-05T21:11:10.169Z,591.90
2022-08-05T21:13:48.413Z,588.83
2022-08-05T21:16:23.335Z,575.30
2022-08-05T21:18:56.705Z,585.03
2022-08-05T21:21:26.673Z,587.10
2022-08-05T21:24:06.356Z,559.10
2022-08-05T21:26:32.814Z,586.60
2022-08-05T21:29:03.791Z,577.00
2022-08-05T21:31:41.372Z,576.93
2022-08-05T21:34:08.120Z,582.83
2022-08-05T21:36:36.920Z,587.90
2022-08-05T21:39:03.422Z,573.47
2022-08-05T21:41:34.027Z,580.97
2022-08-05T21:44:04.444Z,589.10
2022-08-05T21:46:31.292Z,583.90
2022-08-05T21:48:59.831Z,591.90
2022-08-05T21:52:23.004Z,582.37
2022-08-05T21:54:12.948Z,584.40
2022-08-05T21:56:44.224Z,590.60
2022-08-05T21:59:22.470Z,585.03
2022-08-05T22:01:51.599Z,572.97
2022-08-05T22:04:21.240Z,580.90
2022-08-05T22:06:52.003Z,575.97
2022-08-05T22:09:21.503Z,582.53
2022-08-05T22:11:48.811Z,586.23
2022-08-05T22:14:34.305Z,585.77
2022-08-05T22:17:03.939Z,587.03
2022-08-05T22:20:00.467Z,563.23
2022-08-05T22:22:27.018Z,571.53
2022-08-05T22:24:55.821Z,583.43
2022-08-05T22:27:22.574Z,585.37
2022-08-05T22:29:49.029Z,575.10
2022-08-05T22:32:20.794Z,561.70
2022-08-05T22:34:49.466Z,583.30
2022-08-05T22:37:15.966Z,582.17
2022-08-05T22:39:42.454Z,578.50
2022-08-05T22:42:15.294Z,587.10
2022-08-05T22:44:56.314Z,583.93
2022-08-05T22:47:28.617Z,579.20
2022-08-05T22:50:20.748Z,550.60
2022-08-05T22:52:43.387Z,584.70
2022-08-05T22:55:19.274Z,582.10
2022-08-05T22:57:46.515Z,583.63
2022-08-05T23:00:17.948Z,584.20
2022-08-05T23:02:47.637Z,578.63
2022-08-05T23:05:14.819Z,577.37
2022-08-05T23:07:44.736Z,569.90
2022-08-05T23:10:12.150Z,582.10
2022-08-05T23:12:38.627Z,585.17
2022-08-05T23:15:09.104Z,589.93
2022-08-05T23:17:37.948Z,578.70
2022-08-05T23:20:22.231Z,580.00
2022-08-05T23:22:50.916Z,576.23
2022-08-05T23:25:54.697Z,574.90
2022-08-05T23:28:09.074Z,578.43
2022-08-05T23:30:35.497Z,561.07
2022-08-05T23:33:07.224Z,572.77
2022-08-05T23:35:43.010Z,570.63
2022-08-05T23:38:12.008Z,578.67
2022-08-05T23:40:38.676Z,582.20
2022-08-05T23:43:24.394Z,578.10
2022-08-05T23:45:55.201Z,579.57
2022-08-05T23:48:22.136Z,584.00
2022-08-05T23:50:52.778Z,574.10
2022-08-05T23:53:22.904Z,576.30
2022-08-05T23:55:49.631Z,579.97
2022-08-05T23:58:31.849Z,583.17
